Kingsville Naval Air Station
KNQI : now visible

Airfield :











YOU CAN JOIN US ON...

 
LOGIN :

Register | Disclaimer

   EN    FR    IT 

 









Legend :    VFR   Marginal VFR   IFR   Intensive IFR   Very Intensive IFR
Visi :
Ceiling :
>= 8 km
>= 3000ft
5 to 8 km
1000 to 3000 ft
1500m to 5 km
500 to 1000 ft
800 to 1500m
200 to 500 ft
< 800m
< 200 ft
Symbols :   Thunderstorms  Fog  Heavy snow  Heavy precipitations  Wind > 20 kt







- Airport Elevation : 50 ft


KNQI - Kingsville Naval Air Station

CURRENT METAR :
  • 200856Z AUTO 16007KT 10SM CLR 27/24 A2986 RMK AO2 SLP109 T02670239 50000 $

EXPIRED METARs :
  • 200756Z AUTO 17010KT 10SM CLR 28/24 A2986 RMK AO2 SLP109 T02780239 $
  • 200656Z AUTO 15012KT 10SM CLR 28/24 A2987 RMK AO2 SLP110 T02830244 $

TAF TAF KNQI
Valid from the 20 at 07:00 until the 21 at 07:00 UTC


2007/2107 15011KT 9999 FEW015 SCT025 SCT250 QNH2983INS
FM201100 16007KT 9999 FEW020 FEW250 QNH2985INS
FM201500 16014G20KT 9999 VCSH SCT030 SCT250 QNH2989INS
FM201900 13016G23KT 9999 VCTS SCT045CB SCT250 QNH2978INS
FM210200 15012KT 9999 SCT020 SCT250 QNH2984INS AUTOMATED SENSOR METWATCH 2007 TIL 2012 T25/2011Z T36/2020Z FN00198
No reported NOTAMs for that airfield.



MET'MAP, your aeronautical weather chart ! - Copyright ORBIFLY December 2007 - Disclaimer

ORBIFLY MET'MAP TEAM :

Programming & Development : Alexandra Zaïnal
Concept & Development : Baudouin d'Aumeries
Co-Development & Prog : Marc-Olivier Méhu
Technical & hardware support : Manuel Goepfert

Contact : metmap@orbifly.com




SOURCES & CREDITS :

   NOAA       Earth
Advisory